createdAt,value
2022-10-15T00:00:21.427Z,14.63
2022-10-15T00:02:49.288Z,14.75
2022-10-15T00:05:17.392Z,14.76
2022-10-15T00:07:45.297Z,14.69
2022-10-15T00:10:13.247Z,14.74
2022-10-15T00:12:41.713Z,14.80
2022-10-15T00:15:11.318Z,14.72
2022-10-15T00:17:40.784Z,14.84
2022-10-15T00:20:11.609Z,14.74
2022-10-15T00:22:39.868Z,14.76
2022-10-15T00:25:08.699Z,14.73
2022-10-15T00:27:36.728Z,14.84
2022-10-15T00:30:05.925Z,14.82
2022-10-15T00:32:34.844Z,14.77
2022-10-15T00:35:04.182Z,14.77
2022-10-15T00:37:31.996Z,14.66
2022-10-15T00:39:59.902Z,14.76
2022-10-15T00:42:27.777Z,14.73
2022-10-15T00:44:57.976Z,14.75
2022-10-15T00:47:33.874Z,14.75
2022-10-15T00:50:07.184Z,14.76
2022-10-15T00:52:40.775Z,14.67
2022-10-15T00:55:13.559Z,14.84
2022-10-15T00:57:43.550Z,14.79
2022-10-15T01:00:15.145Z,14.74
2022-10-15T01:02:43.315Z,14.78
2022-10-15T01:05:14.082Z,14.78
2022-10-15T01:07:41.919Z,14.75
2022-10-15T01:10:11.830Z,14.77
2022-10-15T01:13:08.131Z,14.76
2022-10-15T01:15:45.701Z,14.70
2022-10-15T01:18:17.165Z,14.78
2022-10-15T01:21:04.955Z,14.80
2022-10-15T01:24:18.361Z,14.75
2022-10-15T01:27:16.124Z,14.74
2022-10-15T01:30:02.723Z,14.76
2022-10-15T01:32:37.386Z,14.75
2022-10-15T01:35:16.535Z,14.72
2022-10-15T01:37:51.743Z,14.83
2022-10-15T01:40:25.810Z,14.78
2022-10-15T01:42:58.120Z,14.74
2022-10-15T01:45:30.759Z,14.76
2022-10-15T01:48:04.188Z,14.78
2022-10-15T01:50:35.211Z,14.76
2022-10-15T01:53:06.994Z,14.77
2022-10-15T01:55:37.842Z,14.75
2022-10-15T01:58:06.735Z,14.82
2022-10-15T02:00:34.494Z,14.81
2022-10-15T02:03:04.930Z,14.75
2022-10-15T02:05:39.820Z,14.76
2022-10-15T02:08:18.958Z,14.78
2022-10-15T02:10:53.238Z,14.80
2022-10-15T02:13:30.663Z,14.74
2022-10-15T02:16:07.871Z,14.82
2022-10-15T02:18:44.268Z,14.79
2022-10-15T02:21:17.645Z,14.69
2022-10-15T02:23:50.079Z,14.75
2022-10-15T02:26:18.744Z,14.81
2022-10-15T02:28:52.126Z,14.79
2022-10-15T02:31:21.718Z,14.84
2022-10-15T02:33:53.098Z,14.86
2022-10-15T02:36:21.750Z,14.80
2022-10-15T02:38:51.373Z,14.79
2022-10-15T02:41:20.040Z,14.81
2022-10-15T02:43:48.290Z,14.83
2022-10-15T02:46:18.756Z,14.87
2022-10-15T02:48:46.547Z,14.91
2022-10-15T02:51:15.674Z,15.00
2022-10-15T02:53:43.452Z,14.94
2022-10-15T02:56:11.360Z,14.96
2022-10-15T02:58:39.188Z,14.89
2022-10-15T03:01:07.337Z,14.91
2022-10-15T03:03:35.251Z,14.87
2022-10-15T03:06:03.195Z,14.86
2022-10-15T03:08:32.765Z,14.86
2022-10-15T03:11:01.434Z,14.83
2022-10-15T03:13:29.482Z,14.87
2022-10-15T03:15:57.614Z,14.89
2022-10-15T03:18:25.622Z,15.02
2022-10-15T03:20:57.164Z,15.01
2022-10-15T03:23:25.378Z,14.94
2022-10-15T03:25:54.927Z,14.95
2022-10-15T03:28:23.268Z,14.85
2022-10-15T03:30:51.146Z,14.90
2022-10-15T03:33:20.773Z,14.96
2022-10-15T03:35:51.960Z,14.89
2022-10-15T03:38:19.957Z,14.88
2022-10-15T03:40:47.984Z,14.91
2022-10-15T03:43:17.214Z,15.02
2022-10-15T03:45:45.023Z,15.02
2022-10-15T03:48:12.880Z,14.99
2022-10-15T03:50:40.839Z,14.98
2022-10-15T03:53:08.766Z,14.97
2022-10-15T03:55:36.844Z,15.00
2022-10-15T03:58:04.702Z,14.95
2022-10-15T04:00:33.947Z,14.95
2022-10-15T04:03:01.760Z,14.94
2022-10-15T04:05:29.566Z,14.98
2022-10-15T04:07:58.102Z,15.00
2022-10-15T04:10:25.951Z,14.94
2022-10-15T04:12:53.843Z,14.98
2022-10-15T04:15:21.648Z,14.89
2022-10-15T04:17:54.555Z,14.90
2022-10-15T04:20:22.384Z,14.92
2022-10-15T04:22:50.197Z,14.95
2022-10-15T04:25:18.352Z,14.94
2022-10-15T04:27:46.119Z,14.91
2022-10-15T04:30:14.541Z,14.97
2022-10-15T04:32:42.375Z,14.94
2022-10-15T04:35:11.791Z,14.94
2022-10-15T04:37:39.689Z,15.04
2022-10-15T04:40:09.221Z,14.83
2022-10-15T04:42:36.911Z,14.92
2022-10-15T04:45:05.361Z,14.91
2022-10-15T04:47:33.191Z,14.98
2022-10-15T04:50:00.969Z,14.88
2022-10-15T04:52:30.240Z,15.04
2022-10-15T04:54:58.578Z,14.99
2022-10-15T04:57:26.952Z,14.94
2022-10-15T04:59:57.656Z,14.94
2022-10-15T05:02:26.006Z,14.88
2022-10-15T05:04:53.972Z,14.92
2022-10-15T05:07:22.083Z,14.98
2022-10-15T05:09:51.613Z,14.86
2022-10-15T05:12:20.426Z,14.98
2022-10-15T05:14:48.214Z,14.88
2022-10-15T05:17:16.127Z,14.91
2022-10-15T05:19:43.918Z,14.81
2022-10-15T05:22:11.793Z,14.86
2022-10-15T05:24:39.671Z,14.79
2022-10-15T05:27:08.932Z,14.83
2022-10-15T05:29:38.171Z,14.92
2022-10-15T05:32:06.364Z,14.89
2022-10-15T05:34:34.367Z,14.85
2022-10-15T05:37:02.090Z,14.86
2022-10-15T05:39:29.871Z,14.90
2022-10-15T05:41:58.091Z,14.79
2022-10-15T05:44:27.313Z,14.83
2022-10-15T05:46:55.056Z,14.88
2022-10-15T05:49:22.973Z,14.83
2022-10-15T05:51:50.751Z,14.78
2022-10-15T05:54:18.599Z,14.83
2022-10-15T05:56:46.526Z,14.79
2022-10-15T05:59:14.290Z,14.85
2022-10-15T06:01:43.457Z,14.83
2022-10-15T06:04:11.745Z,14.86
2022-10-15T06:06:39.562Z,14.92
2022-10-15T06:09:07.308Z,14.86
2022-10-15T06:11:35.071Z,14.90
2022-10-15T06:14:02.946Z,14.92
2022-10-15T06:16:30.723Z,14.87
2022-10-15T06:18:59.887Z,14.87
2022-10-15T06:21:28.336Z,14.94
2022-10-15T06:23:56.047Z,14.89
2022-10-15T06:26:23.793Z,14.87
2022-10-15T06:28:51.589Z,14.88
2022-10-15T06:31:19.490Z,14.83
2022-10-15T06:33:47.271Z,14.87
2022-10-15T06:36:16.749Z,14.83
2022-10-15T06:38:45.013Z,14.82
2022-10-15T06:41:12.811Z,14.80
2022-10-15T06:43:40.666Z,14.82
2022-10-15T06:46:08.518Z,14.78
2022-10-15T06:48:36.455Z,14.83
2022-10-15T06:51:05.525Z,14.83
2022-10-15T06:53:35.035Z,14.83
2022-10-15T06:56:04.206Z,14.86
2022-10-15T06:58:32.242Z,14.82
2022-10-15T07:01:01.751Z,14.82
2022-10-15T07:03:29.843Z,14.84
2022-10-15T07:05:57.832Z,14.86
2022-10-15T07:08:26.577Z,14.77
2022-10-15T07:10:55.761Z,14.77
2022-10-15T07:13:23.564Z,14.82
2022-10-15T07:15:54.035Z,14.74
2022-10-15T07:18:21.900Z,14.79
2022-10-15T07:20:49.767Z,14.78
2022-10-15T07:23:25.509Z,14.80
2022-10-15T07:25:58.497Z,14.67
2022-10-15T07:28:26.737Z,14.75
2022-10-15T07:30:54.736Z,14.91
2022-10-15T07:33:22.534Z,14.83
2022-10-15T07:35:50.315Z,14.85
2022-10-15T07:38:18.274Z,14.82
2022-10-15T07:40:46.055Z,14.84
2022-10-15T07:43:15.867Z,14.88
2022-10-15T07:45:48.253Z,15.00
2022-10-15T07:48:16.201Z,15.00
2022-10-15T07:50:44.130Z,14.96
2022-10-15T07:53:11.918Z,15.04
2022-10-15T07:55:39.685Z,15.10
2022-10-15T07:58:08.413Z,15.17
2022-10-15T08:00:37.673Z,15.21
2022-10-15T08:03:05.830Z,15.22
2022-10-15T08:05:34.398Z,15.43
2022-10-15T08:08:02.334Z,15.34
2022-10-15T08:10:30.375Z,15.49
2022-10-15T08:12:58.123Z,15.39
2022-10-15T08:15:25.848Z,15.45
2022-10-15T08:17:54.980Z,15.55
2022-10-15T08:20:22.830Z,15.52
2022-10-15T08:22:50.607Z,15.83
2022-10-15T08:25:18.547Z,15.74
2022-10-15T08:27:46.446Z,16.02
2022-10-15T08:30:14.318Z,15.86
2022-10-15T08:32:42.119Z,16.01
2022-10-15T08:35:11.446Z,16.03
2022-10-15T08:37:39.373Z,16.01
2022-10-15T08:40:08.622Z,16.06
2022-10-15T08:42:39.474Z,16.64
2022-10-15T08:45:13.451Z,16.42
2022-10-15T08:47:46.803Z,16.67
2022-10-15T08:50:27.330Z,16.93
2022-10-15T08:52:57.931Z,17.07
2022-10-15T08:55:33.392Z,16.72
2022-10-15T08:58:08.012Z,16.70
2022-10-15T09:00:38.575Z,16.73
2022-10-15T09:03:16.036Z,16.54
2022-10-15T09:05:51.934Z,16.67
2022-10-15T09:08:29.658Z,16.65
2022-10-15T09:11:02.480Z,16.86
2022-10-15T09:13:34.714Z,16.83
2022-10-15T09:16:11.738Z,16.80
2022-10-15T09:18:42.846Z,16.85
2022-10-15T09:21:13.105Z,16.88
2022-10-15T09:23:43.629Z,16.92
2022-10-15T09:26:27.016Z,16.89
2022-10-15T09:29:04.307Z,16.97
2022-10-15T09:31:37.427Z,17.09
2022-10-15T09:34:12.712Z,17.44
2022-10-15T09:36:48.177Z,17.91
2022-10-15T09:39:35.851Z,18.09
2022-10-15T09:42:14.910Z,17.90
2022-10-15T09:44:45.682Z,18.22
2022-10-15T09:47:23.510Z,18.01
2022-10-15T09:49:51.374Z,18.09
2022-10-15T09:52:30.972Z,17.61
2022-10-15T09:55:08.194Z,17.51
2022-10-15T09:57:38.689Z,17.57
2022-10-15T10:00:10.600Z,17.69
2022-10-15T10:02:38.624Z,17.43
2022-10-15T10:05:22.347Z,17.63
2022-10-15T10:07:51.548Z,17.63
2022-10-15T10:10:26.480Z,17.35
2022-10-15T10:12:57.078Z,17.74
2022-10-15T10:15:34.144Z,17.83
2022-10-15T10:18:05.353Z,17.86
2022-10-15T10:20:34.868Z,17.80
2022-10-15T10:23:23.426Z,18.03
2022-10-15T10:25:51.579Z,18.26
2022-10-15T10:28:27.901Z,18.20
2022-10-15T10:31:03.808Z,18.45
2022-10-15T10:33:35.143Z,18.60
2022-10-15T10:36:03.259Z,18.25
2022-10-15T10:38:34.222Z,18.34
2022-10-15T10:41:08.534Z,18.17
2022-10-15T10:43:39.501Z,17.99
2022-10-15T10:46:18.958Z,17.75
2022-10-15T10:48:48.649Z,17.78
2022-10-15T10:51:19.510Z,17.79
2022-10-15T10:53:55.457Z,17.95
2022-10-15T10:56:26.622Z,17.92
2022-10-15T10:59:01.185Z,17.69
2022-10-15T11:01:30.121Z,17.55
2022-10-15T11:03:57.932Z,17.55
2022-10-15T11:06:46.144Z,17.35
2022-10-15T11:09:33.075Z,17.34
2022-10-15T11:12:15.514Z,17.55
2022-10-15T11:14:49.840Z,17.34
2022-10-15T11:17:26.426Z,17.32
2022-10-15T11:23:00.700Z,17.43
2022-10-15T11:25:42.736Z,17.78
2022-10-15T11:28:23.820Z,17.77
2022-10-15T11:31:00.843Z,18.12
2022-10-15T11:33:52.420Z,18.75
2022-10-15T11:36:33.608Z,18.83
2022-10-15T11:39:14.734Z,19.01
2022-10-15T11:41:52.818Z,18.77
2022-10-15T11:44:33.245Z,18.90
2022-10-15T11:47:12.077Z,18.75
2022-10-15T11:49:50.928Z,18.36
2022-10-15T11:52:47.465Z,18.58
2022-10-15T11:55:20.206Z,18.27
2022-10-15T11:57:54.956Z,18.44
2022-10-15T12:00:34.268Z,18.55
2022-10-15T12:03:08.467Z,18.23
2022-10-15T12:05:40.110Z,18.30
2022-10-15T12:08:10.720Z,18.19
2022-10-15T12:11:04.208Z,18.10
2022-10-15T12:13:40.407Z,18.24
2022-10-15T12:16:19.804Z,18.02
2022-10-15T12:18:56.889Z,17.91
2022-10-15T12:21:37.843Z,17.90
2022-10-15T12:24:10.530Z,17.84
2022-10-15T12:26:38.657Z,17.94
2022-10-15T12:29:21.653Z,17.94
2022-10-15T12:31:51.963Z,17.85
2022-10-15T12:34:29.723Z,17.74
2022-10-15T12:37:06.234Z,17.70
2022-10-15T12:39:48.031Z,17.67
2022-10-15T12:42:27.413Z,17.54
2022-10-15T12:44:57.277Z,17.26
2022-10-15T12:47:48.273Z,17.31
2022-10-15T12:50:20.162Z,17.27
2022-10-15T12:53:00.216Z,17.34
2022-10-15T12:55:34.159Z,17.32
2022-10-15T12:58:05.386Z,17.37
2022-10-15T13:00:42.896Z,17.40
2022-10-15T13:03:29.728Z,17.27
2022-10-15T13:06:14.436Z,17.42
2022-10-15T13:08:46.855Z,17.39
2022-10-15T13:11:24.444Z,17.55
2022-10-15T13:13:56.472Z,17.63
2022-10-15T13:16:25.667Z,17.59
2022-10-15T13:18:57.127Z,17.76
2022-10-15T13:21:49.632Z,17.74
2022-10-15T13:24:20.694Z,17.71
2022-10-15T13:26:49.042Z,17.75
2022-10-15T13:29:18.695Z,17.90
2022-10-15T13:31:48.246Z,17.74
2022-10-15T13:34:25.473Z,17.68
2022-10-15T13:36:54.987Z,17.92
2022-10-15T13:39:29.437Z,17.78
2022-10-15T13:42:09.361Z,17.81
2022-10-15T13:44:37.586Z,17.79
2022-10-15T13:47:25.550Z,17.73
2022-10-15T13:50:11.329Z,17.86
2022-10-15T13:52:41.291Z,17.74
2022-10-15T13:55:18.712Z,17.97
2022-10-15T13:57:47.470Z,18.08
2022-10-15T14:00:22.652Z,18.02
2022-10-15T14:03:15.102Z,18.04
2022-10-15T14:05:43.261Z,17.86
2022-10-15T14:08:20.228Z,17.88
2022-10-15T14:10:49.004Z,17.97
2022-10-15T14:13:17.462Z,17.84
2022-10-15T14:15:50.027Z,17.94
2022-10-15T14:18:29.356Z,18.02
2022-10-15T14:20:57.243Z,17.93
2022-10-15T14:23:28.089Z,18.03
2022-10-15T14:25:59.328Z,18.03
2022-10-15T14:28:29.043Z,17.98
2022-10-15T14:30:57.953Z,17.97
2022-10-15T14:33:48.285Z,17.96
2022-10-15T14:36:28.172Z,17.85
2022-10-15T14:38:56.753Z,17.82
2022-10-15T14:41:28.422Z,17.84
2022-10-15T14:44:06.054Z,17.77
2022-10-15T14:46:39.438Z,17.85
2022-10-15T14:49:23.042Z,17.91
2022-10-15T14:52:00.841Z,17.83
2022-10-15T14:54:34.083Z,17.86
2022-10-15T14:57:02.214Z,17.74
2022-10-15T14:59:33.887Z,17.76
2022-10-15T15:02:03.682Z,17.69
2022-10-15T15:04:39.088Z,17.66
2022-10-15T15:07:20.045Z,17.76
2022-10-15T15:09:52.100Z,17.75
2022-10-15T15:12:26.941Z,17.72
2022-10-15T15:14:56.534Z,17.72
2022-10-15T15:17:26.191Z,17.71
2022-10-15T15:19:57.250Z,17.72
2022-10-15T15:22:30.665Z,17.69
2022-10-15T15:25:00.861Z,17.58
2022-10-15T15:27:31.168Z,17.66
2022-10-15T15:29:59.098Z,17.65
2022-10-15T15:32:27.432Z,17.62
2022-10-15T15:34:58.772Z,17.56
2022-10-15T15:37:27.709Z,17.63
2022-10-15T15:39:56.384Z,17.61
2022-10-15T15:42:26.289Z,17.58
2022-10-15T15:44:54.358Z,17.50
2022-10-15T15:47:22.221Z,17.45
2022-10-15T15:49:50.024Z,17.56
2022-10-15T15:52:19.182Z,17.52
2022-10-15T15:54:47.316Z,17.52
2022-10-15T15:57:15.497Z,17.51
2022-10-15T15:59:43.449Z,17.41
2022-10-15T16:02:12.701Z,17.51
2022-10-15T16:04:40.504Z,17.46
2022-10-15T16:07:10.386Z,17.44
2022-10-15T16:09:42.714Z,17.44
2022-10-15T16:12:10.434Z,17.44
2022-10-15T16:14:38.395Z,17.44
2022-10-15T16:17:06.147Z,17.49
2022-10-15T16:19:34.001Z,17.49
2022-10-15T16:22:01.896Z,17.42
2022-10-15T16:24:29.852Z,17.46
2022-10-15T16:26:59.215Z,17.46
2022-10-15T16:29:27.074Z,17.47
2022-10-15T16:31:55.012Z,17.43
2022-10-15T16:34:23.249Z,17.43
2022-10-15T16:36:51.044Z,17.40
2022-10-15T16:39:19.031Z,17.29
2022-10-15T16:41:46.928Z,17.31
2022-10-15T16:44:16.169Z,17.34
2022-10-15T16:46:44.717Z,17.34
2022-10-15T16:49:12.621Z,17.34
2022-10-15T16:51:43.476Z,17.35
2022-10-15T16:54:15.331Z,17.44
2022-10-15T16:56:45.404Z,17.39
2022-10-15T16:59:17.103Z,17.37
2022-10-15T17:01:44.927Z,17.36
2022-10-15T17:04:12.847Z,17.34
2022-10-15T17:06:40.690Z,17.32
2022-10-15T17:09:09.085Z,17.36
2022-10-15T17:11:38.852Z,17.26
2022-10-15T17:14:08.520Z,17.24
2022-10-15T17:16:39.549Z,17.24
2022-10-15T17:19:08.387Z,17.23
2022-10-15T17:21:36.767Z,17.23
2022-10-15T17:24:07.905Z,17.18
2022-10-15T17:26:38.510Z,17.21
2022-10-15T17:29:07.574Z,17.28
2022-10-15T17:31:36.977Z,17.28
2022-10-15T17:34:06.617Z,17.26
2022-10-15T17:36:42.159Z,17.23
2022-10-15T17:39:11.328Z,17.24
2022-10-15T17:41:39.139Z,17.15
2022-10-15T17:44:06.976Z,17.09
2022-10-15T17:46:34.796Z,17.18
2022-10-15T17:49:04.233Z,17.13
2022-10-15T17:51:34.685Z,17.24
2022-10-15T17:54:02.833Z,17.19
2022-10-15T17:56:32.236Z,17.23
2022-10-15T17:59:00.938Z,17.16
2022-10-15T18:01:56.662Z,17.18
2022-10-15T18:04:20.662Z,17.06
2022-10-15T18:06:48.809Z,17.11
2022-10-15T18:09:16.985Z,16.99
2022-10-15T18:11:46.610Z,16.91
2022-10-15T18:14:14.533Z,16.90
2022-10-15T18:16:43.230Z,16.86
2022-10-15T18:19:11.618Z,16.83
2022-10-15T18:21:41.941Z,16.84
2022-10-15T18:24:11.234Z,16.77
2022-10-15T18:26:39.000Z,16.85
2022-10-15T18:29:06.987Z,16.93
2022-10-15T18:31:35.159Z,16.90
2022-10-15T18:34:03.689Z,16.89
2022-10-15T18:36:33.227Z,16.94
2022-10-15T18:39:02.366Z,16.91
2022-10-15T18:41:33.539Z,16.87
2022-10-15T18:44:03.364Z,16.93
2022-10-15T18:46:32.177Z,16.95
2022-10-15T18:48:59.990Z,16.96
2022-10-15T18:51:29.393Z,17.07
2022-10-15T18:53:57.542Z,16.95
2022-10-15T18:56:26.904Z,17.00
2022-10-15T18:58:54.896Z,17.06
2022-10-15T19:01:26.690Z,16.94
2022-10-15T19:03:54.749Z,17.06
2022-10-15T19:06:24.625Z,17.07
2022-10-15T19:08:52.759Z,17.07
2022-10-15T19:11:20.785Z,17.14
2022-10-15T19:13:50.173Z,17.09
2022-10-15T19:16:17.996Z,17.02
2022-10-15T19:18:45.886Z,17.06
2022-10-15T19:21:13.728Z,17.02
2022-10-15T19:23:41.846Z,17.07
2022-10-15T19:26:10.704Z,17.11
2022-10-15T19:28:39.171Z,17.09
2022-10-15T19:31:10.939Z,17.09
2022-10-15T19:33:38.842Z,17.12
2022-10-15T19:36:07.132Z,17.09
2022-10-15T19:38:35.088Z,17.12
2022-10-15T19:41:04.934Z,17.07
2022-10-15T19:43:32.862Z,17.10
2022-10-15T19:46:04.572Z,17.15
2022-10-15T19:48:33.745Z,17.09
2022-10-15T19:51:02.761Z,17.05
2022-10-15T19:53:32.129Z,17.02
2022-10-15T19:56:07.370Z,17.05
2022-10-15T19:58:35.766Z,17.03
2022-10-15T20:01:05.348Z,17.10
2022-10-15T20:06:06.602Z,17.10
2022-10-15T20:08:34.564Z,17.08
2022-10-15T20:11:02.358Z,17.09
2022-10-15T20:13:30.404Z,17.11
2022-10-15T20:16:03.607Z,17.02
2022-10-15T20:18:32.441Z,16.99
2022-10-15T20:21:07.052Z,16.97
2022-10-15T20:23:35.091Z,17.04
2022-10-15T20:26:05.530Z,16.95
2022-10-15T20:28:35.863Z,16.93
2022-10-15T20:31:06.217Z,16.96
2022-10-15T20:33:34.247Z,16.96
2022-10-15T20:36:08.070Z,17.01
2022-10-15T20:38:37.734Z,16.98
2022-10-15T20:41:10.823Z,16.94
2022-10-15T20:43:39.138Z,17.03
2022-10-15T20:46:09.230Z,17.02
2022-10-15T20:48:39.592Z,16.91
2022-10-15T20:51:10.479Z,16.92
2022-10-15T20:53:39.019Z,16.85
2022-10-15T20:56:07.778Z,16.74
2022-10-15T20:58:35.796Z,16.70
2022-10-15T21:01:03.870Z,16.73
2022-10-15T21:03:31.903Z,16.68
2022-10-15T21:06:00.100Z,16.60
2022-10-15T21:08:29.465Z,16.64
2022-10-15T21:11:02.792Z,16.55
2022-10-15T21:13:30.985Z,16.47
2022-10-15T21:16:00.120Z,16.45
2022-10-15T21:18:28.133Z,16.39
2022-10-15T21:20:56.630Z,16.34
2022-10-15T21:23:24.423Z,16.42
2022-10-15T21:25:53.528Z,16.32
2022-10-15T21:28:21.430Z,16.27
2022-10-15T21:30:49.302Z,16.25
2022-10-15T21:33:17.101Z,16.18
2022-10-15T21:35:44.834Z,16.17
2022-10-15T21:38:12.597Z,16.10
2022-10-15T21:40:40.398Z,16.10
2022-10-15T21:43:09.658Z,16.06
2022-10-15T21:45:38.222Z,15.92
2022-10-15T21:48:06.640Z,15.93
2022-10-15T21:50:34.448Z,15.80
2022-10-15T21:53:03.623Z,15.81
2022-10-15T21:55:31.482Z,15.79
2022-10-15T21:57:59.215Z,15.70
2022-10-15T22:00:29.341Z,15.69
2022-10-15T22:02:57.054Z,15.68
2022-10-15T22:05:24.862Z,15.66
2022-10-15T22:07:52.689Z,15.68
2022-10-15T22:10:20.483Z,15.72
2022-10-15T22:12:52.209Z,15.72
2022-10-15T22:15:20.022Z,15.73
2022-10-15T22:17:49.151Z,15.75
2022-10-15T22:20:21.375Z,15.70
2022-10-15T22:22:50.878Z,15.62
2022-10-15T22:25:18.613Z,15.60
2022-10-15T22:27:46.427Z,15.62
2022-10-15T22:30:14.282Z,15.65
2022-10-15T22:32:42.070Z,15.63
2022-10-15T22:35:11.259Z,15.60
2022-10-15T22:37:38.962Z,15.48
2022-10-15T22:40:07.175Z,15.42
2022-10-15T22:42:34.864Z,15.48
2022-10-15T22:45:02.662Z,15.49
2022-10-15T22:47:30.540Z,15.43
2022-10-15T22:49:58.489Z,15.46
2022-10-15T22:52:27.872Z,15.45
2022-10-15T22:54:55.918Z,15.53
2022-10-15T22:57:23.658Z,15.49
2022-10-15T22:59:55.858Z,15.49
2022-10-15T23:02:27.080Z,15.49
2022-10-15T23:04:55.246Z,15.46
2022-10-15T23:07:23.061Z,15.39
2022-10-15T23:09:52.151Z,15.43
2022-10-15T23:12:19.956Z,15.42
2022-10-15T23:14:48.886Z,15.39
2022-10-15T23:17:16.682Z,15.42
2022-10-15T23:19:44.464Z,15.33
2022-10-15T23:22:12.498Z,15.18
2022-10-15T23:24:40.307Z,15.22
2022-10-15T23:27:10.254Z,15.23
2022-10-15T23:29:37.986Z,15.36
2022-10-15T23:32:06.056Z,15.34
2022-10-15T23:34:33.754Z,15.39
2022-10-15T23:37:01.490Z,15.52
2022-10-15T23:39:29.196Z,15.63
2022-10-15T23:41:57.030Z,15.72
2022-10-15T23:44:26.768Z,15.68
2022-10-15T23:46:54.638Z,15.77
2022-10-15T23:49:22.400Z,15.71
2022-10-15T23:51:50.169Z,15.73
2022-10-15T23:54:19.464Z,15.56
2022-10-15T23:56:47.984Z,15.47
2022-10-15T23:59:16.997Z,15.64
